Valley Heliport

NR00 · 北卡罗来纳州, 美国

罗盘
风向 的 风向 260° 直升机
风: 3 kt, 1 beaufort
0 ft 1.000 2.000 3.000 4.000 5.000
Cloud Cloud Cloud Cloud
SCT 2.300
METAR KFBG 211550Z AUTO 26003KT 10SM SCT023 29/23 A3007 RMK AO2 SLP183 $

METAR Valley Heliport - NR00

Valley Heliport是,美国中的直升机场。 该机场位于纬度35,08111和经度-78,94583。 这个机场没有ICAO代码,我们使用US-8179作为参考。 该机场的本地机场标识(FAA LID)为NR00。 机场在Washington FIR中。

该航空气象观测是针对Simmons Army Air Field在2024年7月21日 11:50, 当地时间进行的。

机场观察

风向为260°,速度为3 kt。

可见度为10 mi。

有疏云,零星散落的云朵在2.300 ft的高度。 没有观察到天花板。

温度和风寒是29 °C。 热指数为32。 露点为23 °C,相对湿度为70%。 海平面上的气压为30,07 inHg (QNH)。

白天

今天,太阳从06:17升起,在20:26降落。 这适用于Valley Heliport,世界夏令时可能有所不同。 当地时间与世界标准时间之间的时差为-4 小时。 夏令时目前正在进行中。

公司介绍

我们没有关于这个机场的公司信息。

体会

到Vliegles.nl去找飞行课程,跳伞和其他飞行体验。 浏览页面,了解Valley Heliport附近所有可用的活动。 你也可以使用搜索功能来寻找你所在地附近的特定飞行课程、跳伞或其他飞行体验。

乌云

2.300 ft SCT 疏云,零星散落的云朵

温度 & 天气

温度 29 °C
露点 23 °C
相对湿度 70%
热度指数 32 °C
Kp-index 1 (0-9)

评论

AO2自动气象站,可确定降水类型
SLP183海平面压力为30,07 inHg (30,07 inHg)
$该气象站需要维护

白天

日出
06:17
中午
13:22
日落
20:27 (8:15)

小工具

你想在你的网站上有一个关于Valley Heliport的当前航空天气(METAR)的小部件吗?

显示HTML代码
报告变更